sensor_id;sensor_type;location;lat;lon;timestamp;P1;durP1;ratioP1;P2;durP2;ratioP2
55015;SDS011;40919;43.236;21.590;2023-05-29T00:00:06;13.70;;;11.15;;
55015;SDS011;40919;43.236;21.590;2023-05-29T00:02:33;15.25;;;10.43;;
55015;SDS011;40919;43.236;21.590;2023-05-29T00:04:59;18.10;;;10.95;;
55015;SDS011;40919;43.236;21.590;2023-05-29T00:07:31;18.65;;;11.63;;
55015;SDS011;40919;43.236;21.590;2023-05-29T00:09:59;15.77;;;11.93;;
55015;SDS011;40919;43.236;21.590;2023-05-29T00:12:25;16.23;;;11.70;;
55015;SDS011;40919;43.236;21.590;2023-05-29T00:14:51;14.43;;;11.48;;
55015;SDS011;40919;43.236;21.590;2023-05-29T00:17:17;16.92;;;11.63;;
55015;SDS011;40919;43.236;21.590;2023-05-29T00:19:43;18.25;;;11.27;;
55015;SDS011;40919;43.236;21.590;2023-05-29T00:22:09;14.65;;;11.82;;
55015;SDS011;40919;43.236;21.590;2023-05-29T00:24:35;16.75;;;11.57;;
55015;SDS011;40919;43.236;21.590;2023-05-29T00:27:01;15.35;;;10.85;;
55015;SDS011;40919;43.236;21.590;2023-05-29T00:29:27;16.00;;;12.30;;
55015;SDS011;40919;43.236;21.590;2023-05-29T00:31:52;17.40;;;11.02;;
55015;SDS011;40919;43.236;21.590;2023-05-29T00:34:22;17.45;;;11.52;;
55015;SDS011;40919;43.236;21.590;2023-05-29T00:36:48;15.25;;;10.55;;
55015;SDS011;40919;43.236;21.590;2023-05-29T00:39:14;16.92;;;11.43;;
55015;SDS011;40919;43.236;21.590;2023-05-29T00:41:40;14.75;;;11.57;;
55015;SDS011;40919;43.236;21.590;2023-05-29T00:44:06;14.70;;;11.95;;
55015;SDS011;40919;43.236;21.590;2023-05-29T00:46:32;18.42;;;12.63;;
55015;SDS011;40919;43.236;21.590;2023-05-29T00:48:59;20.98;;;14.20;;
55015;SDS011;40919;43.236;21.590;2023-05-29T00:51:26;23.83;;;14.90;;
55015;SDS011;40919;43.236;21.590;2023-05-29T00:53:54;16.90;;;13.18;;
55015;SDS011;40919;43.236;21.590;2023-05-29T00:56:20;23.73;;;14.80;;
55015;SDS011;40919;43.236;21.590;2023-05-29T00:58:50;26.05;;;15.93;;
55015;SDS011;40919;43.236;21.590;2023-05-29T01:01:17;22.80;;;15.82;;
55015;SDS011;40919;43.236;21.590;2023-05-29T01:03:44;21.85;;;17.13;;
55015;SDS011;40919;43.236;21.590;2023-05-29T01:06:10;24.27;;;16.23;;
55015;SDS011;40919;43.236;21.590;2023-05-29T01:08:36;28.73;;;17.65;;
55015;SDS011;40919;43.236;21.590;2023-05-29T01:11:06;26.63;;;18.08;;
55015;SDS011;40919;43.236;21.590;2023-05-29T01:13:38;24.38;;;15.88;;
55015;SDS011;40919;43.236;21.590;2023-05-29T01:24:26;25.88;;;18.23;;
55015;SDS011;40919;43.236;21.590;2023-05-29T01:27:18;27.50;;;17.55;;
55015;SDS011;40919;43.236;21.590;2023-05-29T01:29:46;25.35;;;16.95;;
55015;SDS011;40919;43.236;21.590;2023-05-29T01:32:14;27.02;;;17.77;;
55015;SDS011;40919;43.236;21.590;2023-05-29T01:34:40;23.38;;;17.75;;
55015;SDS011;40919;43.236;21.590;2023-05-29T01:37:06;26.13;;;17.45;;
55015;SDS011;40919;43.236;21.590;2023-05-29T01:39:32;23.77;;;16.55;;
55015;SDS011;40919;43.236;21.590;2023-05-29T01:41:58;24.17;;;16.55;;
55015;SDS011;40919;43.236;21.590;2023-05-29T01:44:25;24.55;;;16.17;;
55015;SDS011;40919;43.236;21.590;2023-05-29T01:46:52;22.77;;;15.73;;
55015;SDS011;40919;43.236;21.590;2023-05-29T01:49:18;24.17;;;15.23;;
55015;SDS011;40919;43.236;21.590;2023-05-29T01:51:44;23.83;;;15.18;;
55015;SDS011;40919;43.236;21.590;2023-05-29T01:54:10;24.27;;;15.48;;
55015;SDS011;40919;43.236;21.590;2023-05-29T01:56:36;21.77;;;15.32;;
55015;SDS011;40919;43.236;21.590;2023-05-29T01:59:03;20.83;;;14.68;;
55015;SDS011;40919;43.236;21.590;2023-05-29T02:01:29;22.67;;;16.48;;
55015;SDS011;40919;43.236;21.590;2023-05-29T02:03:56;21.13;;;15.10;;
55015;SDS011;40919;43.236;21.590;2023-05-29T02:06:21;20.10;;;14.85;;
55015;SDS011;40919;43.236;21.590;2023-05-29T02:08:47;22.60;;;15.43;;
55015;SDS011;40919;43.236;21.590;2023-05-29T02:11:13;23.52;;;15.23;;
55015;SDS011;40919;43.236;21.590;2023-05-29T02:13:39;20.45;;;13.63;;
55015;SDS011;40919;43.236;21.590;2023-05-29T02:16:05;18.20;;;13.48;;
55015;SDS011;40919;43.236;21.590;2023-05-29T02:18:31;17.70;;;12.75;;
55015;SDS011;40919;43.236;21.590;2023-05-29T02:20:56;17.08;;;12.35;;
55015;SDS011;40919;43.236;21.590;2023-05-29T02:23:22;15.88;;;12.25;;
55015;SDS011;40919;43.236;21.590;2023-05-29T02:25:48;18.67;;;13.07;;
55015;SDS011;40919;43.236;21.590;2023-05-29T02:28:14;16.92;;;13.20;;
55015;SDS011;40919;43.236;21.590;2023-05-29T02:30:40;15.30;;;11.93;;
55015;SDS011;40919;43.236;21.590;2023-05-29T02:33:05;15.38;;;11.73;;
55015;SDS011;40919;43.236;21.590;2023-05-29T02:35:31;17.20;;;14.20;;
55015;SDS011;40919;43.236;21.590;2023-05-29T02:37:57;18.92;;;12.30;;
55015;SDS011;40919;43.236;21.590;2023-05-29T02:40:23;14.55;;;11.80;;
55015;SDS011;40919;43.236;21.590;2023-05-29T02:42:49;20.38;;;13.15;;
55015;SDS011;40919;43.236;21.590;2023-05-29T02:45:15;14.40;;;10.95;;
55015;SDS011;40919;43.236;21.590;2023-05-29T02:47:41;15.55;;;11.32;;
55015;SDS011;40919;43.236;21.590;2023-05-29T02:50:07;18.13;;;11.88;;
55015;SDS011;40919;43.236;21.590;2023-05-29T02:52:34;16.80;;;11.43;;
55015;SDS011;40919;43.236;21.590;2023-05-29T02:55:01;13.48;;;10.95;;
55015;SDS011;40919;43.236;21.590;2023-05-29T02:57:29;19.45;;;12.50;;
55015;SDS011;40919;43.236;21.590;2023-05-29T02:59:54;15.95;;;11.98;;
55015;SDS011;40919;43.236;21.590;2023-05-29T03:02:20;19.60;;;12.23;;
55015;SDS011;40919;43.236;21.590;2023-05-29T03:04:46;18.50;;;10.80;;
55015;SDS011;40919;43.236;21.590;2023-05-29T03:07:16;21.02;;;11.55;;
55015;SDS011;40919;43.236;21.590;2023-05-29T03:09:42;18.00;;;11.07;;
55015;SDS011;40919;43.236;21.590;2023-05-29T03:12:08;15.13;;;9.93;;
55015;SDS011;40919;43.236;21.590;2023-05-29T03:14:33;14.93;;;11.05;;
55015;SDS011;40919;43.236;21.590;2023-05-29T03:17:01;16.40;;;10.23;;
55015;SDS011;40919;43.236;21.590;2023-05-29T03:19:30;17.48;;;11.63;;
55015;SDS011;40919;43.236;21.590;2023-05-29T03:21:56;16.27;;;11.20;;
55015;SDS011;40919;43.236;21.590;2023-05-29T03:24:22;15.73;;;11.65;;
55015;SDS011;40919;43.236;21.590;2023-05-29T03:26:48;15.43;;;11.20;;
55015;SDS011;40919;43.236;21.590;2023-05-29T03:29:15;18.30;;;12.57;;
55015;SDS011;40919;43.236;21.590;2023-05-29T03:31:41;17.38;;;11.13;;
55015;SDS011;40919;43.236;21.590;2023-05-29T03:34:07;19.70;;;11.23;;
55015;SDS011;40919;43.236;21.590;2023-05-29T03:36:33;17.60;;;11.55;;
55015;SDS011;40919;43.236;21.590;2023-05-29T03:39:01;13.23;;;11.15;;
55015;SDS011;40919;43.236;21.590;2023-05-29T03:41:30;13.70;;;10.93;;
55015;SDS011;40919;43.236;21.590;2023-05-29T03:43:55;18.63;;;11.40;;
55015;SDS011;40919;43.236;21.590;2023-05-29T03:46:21;14.88;;;11.90;;
55015;SDS011;40919;43.236;21.590;2023-05-29T03:48:47;16.23;;;12.00;;
55015;SDS011;40919;43.236;21.590;2023-05-29T03:51:13;18.50;;;12.23;;
55015;SDS011;40919;43.236;21.590;2023-05-29T03:53:39;13.93;;;11.95;;
55015;SDS011;40919;43.236;21.590;2023-05-29T03:56:05;13.13;;;11.55;;
55015;SDS011;40919;43.236;21.590;2023-05-29T03:58:30;14.20;;;11.35;;
55015;SDS011;40919;43.236;21.590;2023-05-29T04:00:56;16.33;;;11.88;;
55015;SDS011;40919;43.236;21.590;2023-05-29T04:03:22;16.92;;;12.27;;
55015;SDS011;40919;43.236;21.590;2023-05-29T04:05:48;16.13;;;10.95;;
55015;SDS011;40919;43.236;21.590;2023-05-29T04:08:14;20.88;;;12.13;;
55015;SDS011;40919;43.236;21.590;2023-05-29T04:10:40;17.25;;;11.75;;
55015;SDS011;40919;43.236;21.590;2023-05-29T04:13:05;14.38;;;10.82;;
55015;SDS011;40919;43.236;21.590;2023-05-29T04:15:31;18.92;;;12.35;;
55015;SDS011;40919;43.236;21.590;2023-05-29T04:17:58;16.38;;;11.85;;
55015;SDS011;40919;43.236;21.590;2023-05-29T04:20:24;18.55;;;12.40;;
55015;SDS011;40919;43.236;21.590;2023-05-29T04:22:50;16.50;;;11.55;;
55015;SDS011;40919;43.236;21.590;2023-05-29T04:25:16;20.38;;;11.85;;
55015;SDS011;40919;43.236;21.590;2023-05-29T04:27:43;13.50;;;11.68;;
55015;SDS011;40919;43.236;21.590;2023-05-29T04:30:15;16.23;;;12.23;;
55015;SDS011;40919;43.236;21.590;2023-05-29T04:32:41;16.33;;;13.13;;
55015;SDS011;40919;43.236;21.590;2023-05-29T04:35:08;16.70;;;12.95;;
55015;SDS011;40919;43.236;21.590;2023-05-29T04:37:34;15.15;;;12.07;;
55015;SDS011;40919;43.236;21.590;2023-05-29T04:40:06;21.55;;;13.88;;
55015;SDS011;40919;43.236;21.590;2023-05-29T04:42:37;21.48;;;13.57;;
55015;SDS011;40919;43.236;21.590;2023-05-29T04:45:05;19.33;;;14.40;;
55015;SDS011;40919;43.236;21.590;2023-05-29T04:47:31;19.27;;;13.98;;
55015;SDS011;40919;43.236;21.590;2023-05-29T04:50:01;17.05;;;12.68;;
55015;SDS011;40919;43.236;21.590;2023-05-29T04:52:27;18.50;;;13.25;;
55015;SDS011;40919;43.236;21.590;2023-05-29T04:54:53;21.17;;;13.23;;
55015;SDS011;40919;43.236;21.590;2023-05-29T04:57:20;20.63;;;12.23;;
55015;SDS011;40919;43.236;21.590;2023-05-29T04:59:45;18.83;;;13.68;;
55015;SDS011;40919;43.236;21.590;2023-05-29T05:02:11;22.75;;;14.13;;
55015;SDS011;40919;43.236;21.590;2023-05-29T05:04:37;15.50;;;12.82;;
55015;SDS011;40919;43.236;21.590;2023-05-29T05:07:04;14.35;;;12.48;;
55015;SDS011;40919;43.236;21.590;2023-05-29T05:09:30;14.80;;;11.70;;
55015;SDS011;40919;43.236;21.590;2023-05-29T05:11:56;17.02;;;11.27;;
55015;SDS011;40919;43.236;21.590;2023-05-29T05:14:22;13.63;;;11.38;;
55015;SDS011;40919;43.236;21.590;2023-05-29T05:16:48;16.80;;;12.13;;
55015;SDS011;40919;43.236;21.590;2023-05-29T05:19:14;13.65;;;11.93;;
55015;SDS011;40919;43.236;21.590;2023-05-29T05:21:40;17.33;;;11.18;;
55015;SDS011;40919;43.236;21.590;2023-05-29T05:24:06;13.20;;;10.85;;
55015;SDS011;40919;43.236;21.590;2023-05-29T05:26:32;18.00;;;11.48;;
55015;SDS011;40919;43.236;21.590;2023-05-29T05:28:57;14.18;;;11.15;;
55015;SDS011;40919;43.236;21.590;2023-05-29T05:31:23;14.15;;;11.30;;
55015;SDS011;40919;43.236;21.590;2023-05-29T05:33:50;16.48;;;11.15;;
55015;SDS011;40919;43.236;21.590;2023-05-29T05:36:16;14.80;;;11.30;;
55015;SDS011;40919;43.236;21.590;2023-05-29T05:38:41;33.35;;;12.73;;
55015;SDS011;40919;43.236;21.590;2023-05-29T05:41:07;18.52;;;10.82;;
55015;SDS011;40919;43.236;21.590;2023-05-29T05:43:33;12.18;;;10.43;;
55015;SDS011;40919;43.236;21.590;2023-05-29T05:45:59;16.20;;;11.90;;
55015;SDS011;40919;43.236;21.590;2023-05-29T05:48:25;21.23;;;10.40;;
55015;SDS011;40919;43.236;21.590;2023-05-29T05:50:50;17.45;;;10.68;;
55015;SDS011;40919;43.236;21.590;2023-05-29T05:53:16;16.52;;;10.85;;
55015;SDS011;40919;43.236;21.590;2023-05-29T05:55:42;14.20;;;10.95;;
55015;SDS011;40919;43.236;21.590;2023-05-29T05:58:08;13.10;;;10.15;;
55015;SDS011;40919;43.236;21.590;2023-05-29T06:00:34;11.02;;;9.57;;
55015;SDS011;40919;43.236;21.590;2023-05-29T06:03:00;11.63;;;9.32;;
55015;SDS011;40919;43.236;21.590;2023-05-29T06:05:28;17.15;;;10.00;;
55015;SDS011;40919;43.236;21.590;2023-05-29T06:07:55;13.88;;;9.80;;
55015;SDS011;40919;43.236;21.590;2023-05-29T06:10:21;14.93;;;10.18;;
55015;SDS011;40919;43.236;21.590;2023-05-29T06:12:46;16.13;;;13.75;;
55015;SDS011;40919;43.236;21.590;2023-05-29T06:15:12;14.65;;;10.35;;
55015;SDS011;40919;43.236;21.590;2023-05-29T06:17:38;11.23;;;8.73;;
55015;SDS011;40919;43.236;21.590;2023-05-29T06:20:05;10.52;;;8.70;;
55015;SDS011;40919;43.236;21.590;2023-05-29T06:22:35;10.82;;;9.45;;
55015;SDS011;40919;43.236;21.590;2023-05-29T06:25:01;11.55;;;9.95;;
55015;SDS011;40919;43.236;21.590;2023-05-29T06:27:27;17.00;;;10.10;;
55015;SDS011;40919;43.236;21.590;2023-05-29T06:29:53;14.27;;;9.50;;
55015;SDS011;40919;43.236;21.590;2023-05-29T06:32:19;13.27;;;9.45;;
55015;SDS011;40919;43.236;21.590;2023-05-29T06:34:45;15.02;;;9.32;;
55015;SDS011;40919;43.236;21.590;2023-05-29T06:37:11;17.48;;;11.10;;
55015;SDS011;40919;43.236;21.590;2023-05-29T06:39:36;10.05;;;8.63;;
55015;SDS011;40919;43.236;21.590;2023-05-29T06:42:02;9.40;;;7.75;;
55015;SDS011;40919;43.236;21.590;2023-05-29T06:44:28;14.95;;;9.43;;
55015;SDS011;40919;43.236;21.590;2023-05-29T06:46:54;13.20;;;8.00;;
55015;SDS011;40919;43.236;21.590;2023-05-29T06:49:20;12.93;;;6.75;;
55015;SDS011;40919;43.236;21.590;2023-05-29T06:51:45;14.60;;;7.32;;
55015;SDS011;40919;43.236;21.590;2023-05-29T06:54:11;9.55;;;7.15;;
55015;SDS011;40919;43.236;21.590;2023-05-29T06:56:37;10.40;;;7.00;;
55015;SDS011;40919;43.236;21.590;2023-05-29T06:59:03;10.00;;;7.28;;
55015;SDS011;40919;43.236;21.590;2023-05-29T07:01:28;9.23;;;7.03;;
55015;SDS011;40919;43.236;21.590;2023-05-29T07:03:55;12.15;;;8.00;;
55015;SDS011;40919;43.236;21.590;2023-05-29T07:06:21;7.43;;;6.50;;
55015;SDS011;40919;43.236;21.590;2023-05-29T07:08:46;8.95;;;7.18;;
55015;SDS011;40919;43.236;21.590;2023-05-29T07:11:12;10.88;;;7.82;;
55015;SDS011;40919;43.236;21.590;2023-05-29T07:13:38;8.95;;;7.25;;
55015;SDS011;40919;43.236;21.590;2023-05-29T07:16:04;12.07;;;7.90;;
55015;SDS011;40919;43.236;21.590;2023-05-29T07:18:30;10.20;;;6.88;;
55015;SDS011;40919;43.236;21.590;2023-05-29T07:20:56;9.73;;;7.03;;
55015;SDS011;40919;43.236;21.590;2023-05-29T07:23:22;9.27;;;7.50;;
55015;SDS011;40919;43.236;21.590;2023-05-29T07:25:49;12.25;;;6.93;;
55015;SDS011;40919;43.236;21.590;2023-05-29T07:28:15;8.90;;;6.80;;
55015;SDS011;40919;43.236;21.590;2023-05-29T07:30:41;8.90;;;6.68;;
55015;SDS011;40919;43.236;21.590;2023-05-29T07:33:06;9.15;;;6.80;;
55015;SDS011;40919;43.236;21.590;2023-05-29T07:35:32;11.30;;;6.65;;
55015;SDS011;40919;43.236;21.590;2023-05-29T07:37:58;9.57;;;6.30;;
55015;SDS011;40919;43.236;21.590;2023-05-29T07:40:25;13.30;;;6.88;;
55015;SDS011;40919;43.236;21.590;2023-05-29T07:42:51;8.30;;;6.78;;
55015;SDS011;40919;43.236;21.590;2023-05-29T07:45:17;8.40;;;6.45;;
55015;SDS011;40919;43.236;21.590;2023-05-29T07:47:43;9.05;;;5.88;;
55015;SDS011;40919;43.236;21.590;2023-05-29T07:50:08;7.65;;;6.82;;
55015;SDS011;40919;43.236;21.590;2023-05-29T07:52:35;7.20;;;5.97;;
55015;SDS011;40919;43.236;21.590;2023-05-29T07:55:01;9.35;;;6.45;;
55015;SDS011;40919;43.236;21.590;2023-05-29T07:57:27;10.38;;;6.47;;
55015;SDS011;40919;43.236;21.590;2023-05-29T07:59:53;11.68;;;6.25;;
55015;SDS011;40919;43.236;21.590;2023-05-29T08:02:19;8.38;;;6.00;;
55015;SDS011;40919;43.236;21.590;2023-05-29T08:04:46;8.38;;;6.07;;
55015;SDS011;40919;43.236;21.590;2023-05-29T08:07:12;8.80;;;6.47;;
55015;SDS011;40919;43.236;21.590;2023-05-29T08:09:38;9.25;;;6.65;;
55015;SDS011;40919;43.236;21.590;2023-05-29T08:12:03;9.20;;;6.30;;
55015;SDS011;40919;43.236;21.590;2023-05-29T08:14:30;9.15;;;7.00;;
55015;SDS011;40919;43.236;21.590;2023-05-29T08:16:56;8.07;;;6.60;;
55015;SDS011;40919;43.236;21.590;2023-05-29T08:19:23;12.15;;;6.68;;
55015;SDS011;40919;43.236;21.590;2023-05-29T08:21:48;12.88;;;6.57;;
55015;SDS011;40919;43.236;21.590;2023-05-29T08:24:14;7.78;;;6.72;;
55015;SDS011;40919;43.236;21.590;2023-05-29T08:26:40;7.55;;;6.43;;
55015;SDS011;40919;43.236;21.590;2023-05-29T08:29:08;12.10;;;6.75;;
55015;SDS011;40919;43.236;21.590;2023-05-29T08:31:34;7.03;;;5.88;;
55015;SDS011;40919;43.236;21.590;2023-05-29T08:34:00;8.73;;;6.95;;
55015;SDS011;40919;43.236;21.590;2023-05-29T08:36:26;8.30;;;6.63;;
55015;SDS011;40919;43.236;21.590;2023-05-29T08:38:52;7.20;;;5.85;;
55015;SDS011;40919;43.236;21.590;2023-05-29T08:41:25;8.88;;;6.75;;
55015;SDS011;40919;43.236;21.590;2023-05-29T08:44:02;8.80;;;6.97;;
55015;SDS011;40919;43.236;21.590;2023-05-29T08:46:31;9.35;;;6.22;;
55015;SDS011;40919;43.236;21.590;2023-05-29T08:48:58;7.78;;;5.70;;
55015;SDS011;40919;43.236;21.590;2023-05-29T08:51:27;7.55;;;5.65;;
55015;SDS011;40919;43.236;21.590;2023-05-29T08:53:56;14.07;;;6.88;;
55015;SDS011;40919;43.236;21.590;2023-05-29T08:56:23;8.40;;;6.32;;
55015;SDS011;40919;43.236;21.590;2023-05-29T08:58:49;8.50;;;6.20;;
55015;SDS011;40919;43.236;21.590;2023-05-29T09:01:16;8.40;;;6.60;;
55015;SDS011;40919;43.236;21.590;2023-05-29T09:03:42;7.32;;;6.13;;
55015;SDS011;40919;43.236;21.590;2023-05-29T09:06:08;10.18;;;6.18;;
55015;SDS011;40919;43.236;21.590;2023-05-29T09:08:34;8.85;;;6.30;;
55015;SDS011;40919;43.236;21.590;2023-05-29T09:11:00;7.55;;;6.40;;
55015;SDS011;40919;43.236;21.590;2023-05-29T09:13:26;9.70;;;5.70;;
55015;SDS011;40919;43.236;21.590;2023-05-29T09:15:59;8.32;;;5.45;;
55015;SDS011;40919;43.236;21.590;2023-05-29T09:18:30;10.63;;;7.25;;
55015;SDS011;40919;43.236;21.590;2023-05-29T09:20:57;8.40;;;7.45;;
55015;SDS011;40919;43.236;21.590;2023-05-29T09:23:24;6.75;;;5.40;;
55015;SDS011;40919;43.236;21.590;2023-05-29T09:25:52;9.40;;;5.30;;
55015;SDS011;40919;43.236;21.590;2023-05-29T09:28:19;7.35;;;5.85;;
55015;SDS011;40919;43.236;21.590;2023-05-29T09:30:48;7.57;;;5.40;;
55015;SDS011;40919;43.236;21.590;2023-05-29T09:33:15;9.57;;;5.72;;
55015;SDS011;40919;43.236;21.590;2023-05-29T09:35:42;11.10;;;6.93;;
55015;SDS011;40919;43.236;21.590;2023-05-29T09:38:09;6.85;;;5.00;;
55015;SDS011;40919;43.236;21.590;2023-05-29T09:40:36;7.32;;;5.35;;
55015;SDS011;40919;43.236;21.590;2023-05-29T09:43:10;7.45;;;6.32;;
55015;SDS011;40919;43.236;21.590;2023-05-29T09:45:58;6.75;;;5.72;;
55015;SDS011;40919;43.236;21.590;2023-05-29T09:48:23;10.02;;;6.35;;
55015;SDS011;40919;43.236;21.590;2023-05-29T09:50:49;8.73;;;6.35;;
55015;SDS011;40919;43.236;21.590;2023-05-29T09:53:16;8.27;;;5.93;;
55015;SDS011;40919;43.236;21.590;2023-05-29T09:55:47;9.70;;;5.88;;
55015;SDS011;40919;43.236;21.590;2023-05-29T09:58:15;8.20;;;6.00;;
55015;SDS011;40919;43.236;21.590;2023-05-29T10:00:42;11.95;;;8.63;;
55015;SDS011;40919;43.236;21.590;2023-05-29T10:03:09;8.23;;;5.45;;
55015;SDS011;40919;43.236;21.590;2023-05-29T10:05:47;8.18;;;5.18;;
55015;SDS011;40919;43.236;21.590;2023-05-29T10:08:15;6.30;;;4.95;;
55015;SDS011;40919;43.236;21.590;2023-05-29T10:10:44;9.07;;;6.07;;
55015;SDS011;40919;43.236;21.590;2023-05-29T10:13:13;7.22;;;5.93;;
55015;SDS011;40919;43.236;21.590;2023-05-29T10:15:41;14.65;;;12.13;;
55015;SDS011;40919;43.236;21.590;2023-05-29T10:18:13;7.80;;;5.88;;
55015;SDS011;40919;43.236;21.590;2023-05-29T10:20:46;9.35;;;5.88;;
55015;SDS011;40919;43.236;21.590;2023-05-29T10:23:16;10.18;;;5.65;;
55015;SDS011;40919;43.236;21.590;2023-05-29T10:25:46;8.75;;;5.75;;
55015;SDS011;40919;43.236;21.590;2023-05-29T10:28:14;9.18;;;5.53;;
55015;SDS011;40919;43.236;21.590;2023-05-29T10:30:49;7.25;;;5.85;;
55015;SDS011;40919;43.236;21.590;2023-05-29T10:35:48;12.13;;;6.10;;
55015;SDS011;40919;43.236;21.590;2023-05-29T10:38:20;8.05;;;5.68;;
55015;SDS011;40919;43.236;21.590;2023-05-29T10:40:46;9.82;;;5.57;;
55015;SDS011;40919;43.236;21.590;2023-05-29T10:43:31;6.55;;;5.47;;
55015;SDS011;40919;43.236;21.590;2023-05-29T10:45:58;10.02;;;5.10;;
55015;SDS011;40919;43.236;21.590;2023-05-29T10:50:53;7.93;;;5.93;;
55015;SDS011;40919;43.236;21.590;2023-05-29T10:53:24;8.00;;;5.18;;
55015;SDS011;40919;43.236;21.590;2023-05-29T10:55:52;8.97;;;5.27;;
55015;SDS011;40919;43.236;21.590;2023-05-29T10:58:19;6.55;;;4.68;;
55015;SDS011;40919;43.236;21.590;2023-05-29T11:00:45;6.82;;;4.32;;
55015;SDS011;40919;43.236;21.590;2023-05-29T11:03:17;8.05;;;6.40;;
55015;SDS011;40919;43.236;21.590;2023-05-29T11:08:43;6.40;;;4.85;;
55015;SDS011;40919;43.236;21.590;2023-05-29T11:13:38;7.75;;;5.38;;
55015;SDS011;40919;43.236;21.590;2023-05-29T11:19:01;7.68;;;4.68;;
55015;SDS011;40919;43.236;21.590;2023-05-29T11:21:34;9.85;;;5.05;;
55015;SDS011;40919;43.236;21.590;2023-05-29T11:24:04;8.55;;;4.35;;
55015;SDS011;40919;43.236;21.590;2023-05-29T11:26:31;7.95;;;4.45;;
55015;SDS011;40919;43.236;21.590;2023-05-29T11:29:02;6.80;;;3.97;;
55015;SDS011;40919;43.236;21.590;2023-05-29T11:31:31;6.47;;;4.03;;
55015;SDS011;40919;43.236;21.590;2023-05-29T11:34:00;7.60;;;4.80;;
55015;SDS011;40919;43.236;21.590;2023-05-29T11:36:27;8.77;;;4.68;;
55015;SDS011;40919;43.236;21.590;2023-05-29T11:38:53;8.63;;;5.55;;
55015;SDS011;40919;43.236;21.590;2023-05-29T11:41:19;12.15;;;4.97;;
55015;SDS011;40919;43.236;21.590;2023-05-29T11:44:06;8.35;;;4.40;;
55015;SDS011;40919;43.236;21.590;2023-05-29T11:46:31;7.68;;;4.57;;
55015;SDS011;40919;43.236;21.590;2023-05-29T11:48:58;8.57;;;6.03;;
55015;SDS011;40919;43.236;21.590;2023-05-29T11:51:25;11.32;;;6.38;;
55015;SDS011;40919;43.236;21.590;2023-05-29T11:53:51;8.13;;;4.78;;
55015;SDS011;40919;43.236;21.590;2023-05-29T11:56:23;11.27;;;6.15;;
55015;SDS011;40919;43.236;21.590;2023-05-29T11:58:50;9.88;;;4.93;;
55015;SDS011;40919;43.236;21.590;2023-05-29T12:01:20;7.68;;;3.83;;
55015;SDS011;40919;43.236;21.590;2023-05-29T12:03:46;11.40;;;4.97;;
55015;SDS011;40919;43.236;21.590;2023-05-29T12:06:12;9.95;;;4.53;;
55015;SDS011;40919;43.236;21.590;2023-05-29T12:08:38;12.52;;;4.90;;
55015;SDS011;40919;43.236;21.590;2023-05-29T12:11:04;10.20;;;5.30;;
55015;SDS011;40919;43.236;21.590;2023-05-29T12:13:30;11.65;;;5.57;;
55015;SDS011;40919;43.236;21.590;2023-05-29T12:16:01;10.55;;;4.80;;
55015;SDS011;40919;43.236;21.590;2023-05-29T12:18:29;7.70;;;4.80;;
55015;SDS011;40919;43.236;21.590;2023-05-29T12:21:02;7.30;;;4.47;;
55015;SDS011;40919;43.236;21.590;2023-05-29T12:23:29;9.63;;;4.60;;
55015;SDS011;40919;43.236;21.590;2023-05-29T12:25:55;6.60;;;4.70;;
55015;SDS011;40919;43.236;21.590;2023-05-29T12:28:21;10.95;;;4.70;;
55015;SDS011;40919;43.236;21.590;2023-05-29T12:30:48;9.13;;;4.95;;
55015;SDS011;40919;43.236;21.590;2023-05-29T12:35:53;11.65;;;5.30;;
55015;SDS011;40919;43.236;21.590;2023-05-29T12:38:20;7.82;;;4.85;;
55015;SDS011;40919;43.236;21.590;2023-05-29T12:40:48;8.82;;;4.28;;
55015;SDS011;40919;43.236;21.590;2023-05-29T12:43:15;7.28;;;4.75;;
55015;SDS011;40919;43.236;21.590;2023-05-29T12:45:42;7.88;;;5.40;;
55015;SDS011;40919;43.236;21.590;2023-05-29T12:48:08;10.98;;;5.32;;
55015;SDS011;40919;43.236;21.590;2023-05-29T12:50:37;6.88;;;5.10;;
55015;SDS011;40919;43.236;21.590;2023-05-29T12:55:38;6.60;;;4.78;;
55015;SDS011;40919;43.236;21.590;2023-05-29T12:58:06;9.90;;;5.55;;
55015;SDS011;40919;43.236;21.590;2023-05-29T13:00:41;10.77;;;5.28;;
55015;SDS011;40919;43.236;21.590;2023-05-29T13:03:09;10.05;;;8.38;;
55015;SDS011;40919;43.236;21.590;2023-05-29T13:05:37;11.55;;;6.10;;
55015;SDS011;40919;43.236;21.590;2023-05-29T13:08:03;8.30;;;5.43;;
55015;SDS011;40919;43.236;21.590;2023-05-29T13:10:33;6.88;;;5.30;;
55015;SDS011;40919;43.236;21.590;2023-05-29T13:12:59;8.77;;;4.93;;
55015;SDS011;40919;43.236;21.590;2023-05-29T13:15:26;7.75;;;4.40;;
55015;SDS011;40919;43.236;21.590;2023-05-29T13:17:52;10.18;;;7.40;;
55015;SDS011;40919;43.236;21.590;2023-05-29T13:20:18;8.35;;;5.22;;
55015;SDS011;40919;43.236;21.590;2023-05-29T13:22:45;9.63;;;6.80;;
55015;SDS011;40919;43.236;21.590;2023-05-29T13:25:12;8.57;;;5.30;;
55015;SDS011;40919;43.236;21.590;2023-05-29T13:27:40;8.65;;;5.15;;
55015;SDS011;40919;43.236;21.590;2023-05-29T13:30:07;6.75;;;4.90;;
55015;SDS011;40919;43.236;21.590;2023-05-29T13:32:33;7.72;;;4.97;;
55015;SDS011;40919;43.236;21.590;2023-05-29T13:35:00;7.93;;;5.22;;
55015;SDS011;40919;43.236;21.590;2023-05-29T13:37:26;7.97;;;6.05;;
55015;SDS011;40919;43.236;21.590;2023-05-29T13:39:52;9.40;;;5.60;;
55015;SDS011;40919;43.236;21.590;2023-05-29T13:42:19;9.40;;;6.30;;
55015;SDS011;40919;43.236;21.590;2023-05-29T13:44:45;10.52;;;6.32;;
55015;SDS011;40919;43.236;21.590;2023-05-29T13:47:11;9.15;;;5.68;;
55015;SDS011;40919;43.236;21.590;2023-05-29T13:49:37;7.07;;;5.05;;
55015;SDS011;40919;43.236;21.590;2023-05-29T13:52:03;9.32;;;5.63;;
55015;SDS011;40919;43.236;21.590;2023-05-29T13:54:30;11.68;;;7.28;;
55015;SDS011;40919;43.236;21.590;2023-05-29T13:57:00;10.88;;;7.22;;
55015;SDS011;40919;43.236;21.590;2023-05-29T13:59:31;16.00;;;8.93;;
55015;SDS011;40919;43.236;21.590;2023-05-29T14:02:00;13.90;;;9.73;;
55015;SDS011;40919;43.236;21.590;2023-05-29T14:04:28;9.75;;;6.28;;
55015;SDS011;40919;43.236;21.590;2023-05-29T14:06:55;11.65;;;5.68;;
55015;SDS011;40919;43.236;21.590;2023-05-29T14:09:22;8.00;;;5.32;;
55015;SDS011;40919;43.236;21.590;2023-05-29T14:11:56;13.45;;;6.00;;
55015;SDS011;40919;43.236;21.590;2023-05-29T14:14:25;8.55;;;6.18;;
55015;SDS011;40919;43.236;21.590;2023-05-29T14:16:52;7.20;;;4.95;;
55015;SDS011;40919;43.236;21.590;2023-05-29T14:19:19;10.05;;;5.78;;
55015;SDS011;40919;43.236;21.590;2023-05-29T14:21:46;6.63;;;5.22;;
55015;SDS011;40919;43.236;21.590;2023-05-29T14:24:12;9.57;;;4.93;;
55015;SDS011;40919;43.236;21.590;2023-05-29T14:26:38;8.40;;;5.13;;
55015;SDS011;40919;43.236;21.590;2023-05-29T14:29:04;6.82;;;5.22;;
55015;SDS011;40919;43.236;21.590;2023-05-29T14:31:31;7.65;;;5.38;;
55015;SDS011;40919;43.236;21.590;2023-05-29T14:33:58;10.57;;;5.40;;
55015;SDS011;40919;43.236;21.590;2023-05-29T14:36:23;7.38;;;5.05;;
55015;SDS011;40919;43.236;21.590;2023-05-29T14:38:49;7.85;;;4.53;;
55015;SDS011;40919;43.236;21.590;2023-05-29T14:41:15;6.57;;;5.32;;
55015;SDS011;40919;43.236;21.590;2023-05-29T14:43:41;7.40;;;5.45;;
55015;SDS011;40919;43.236;21.590;2023-05-29T14:46:08;10.23;;;4.80;;